createdAt,value
2022-12-18T00:00:06.955Z,-8.64
2022-12-18T00:05:16.517Z,-8.59
2022-12-18T00:10:21.959Z,-8.39
2022-12-18T00:15:24.660Z,-8.38
2022-12-18T00:20:27.551Z,-8.56
2022-12-18T00:25:31.597Z,-8.43
2022-12-18T00:30:34.257Z,-8.37
2022-12-18T00:35:37.000Z,-8.31
2022-12-18T00:40:41.059Z,-8.33
2022-12-18T00:45:43.827Z,-8.33
2022-12-18T00:50:49.205Z,-8.37
2022-12-18T00:55:53.451Z,-8.28
2022-12-18T01:00:56.210Z,-8.25
2022-12-18T01:05:59.062Z,-8.24
2022-12-18T01:11:03.416Z,-8.41
2022-12-18T01:16:06.605Z,-8.42
2022-12-18T01:21:12.826Z,-8.33
2022-12-18T01:26:18.128Z,-8.23
2022-12-18T01:31:24.259Z,-8.35
2022-12-18T01:36:28.510Z,-8.23
2022-12-18T01:41:53.569Z,-8.33
2022-12-18T01:46:56.926Z,-8.30
2022-12-18T01:51:59.710Z,-8.32
2022-12-18T01:57:03.907Z,-8.22
2022-12-18T02:02:06.857Z,-8.25
2022-12-18T02:07:16.207Z,-8.28
2022-12-18T02:12:21.800Z,-8.17
2022-12-18T02:17:27.257Z,-8.38
2022-12-18T02:22:38.127Z,-8.62
2022-12-18T02:27:43.794Z,-8.45
2022-12-18T02:32:49.010Z,-8.36
2022-12-18T02:37:52.047Z,-8.41
2022-12-18T02:42:56.367Z,-8.30
2022-12-18T02:48:00.171Z,-8.17
2022-12-18T02:53:10.913Z,-8.23
2022-12-18T02:58:18.568Z,-8.20
2022-12-18T03:03:31.292Z,-8.26
2022-12-18T03:08:37.718Z,-8.39
2022-12-18T03:13:46.589Z,-8.27
2022-12-18T03:18:54.045Z,-8.10
2022-12-18T03:23:57.294Z,-8.35
2022-12-18T03:29:06.320Z,-8.71
2022-12-18T03:34:11.916Z,-8.75
2022-12-18T03:39:21.390Z,-8.69
2022-12-18T03:44:35.911Z,-8.66
2022-12-18T03:49:42.135Z,-8.55
2022-12-18T03:54:45.666Z,-8.39
2022-12-18T03:59:55.026Z,-8.39
2022-12-18T04:05:03.671Z,-8.25
2022-12-18T04:10:08.891Z,-8.20
2022-12-18T04:15:14.046Z,-8.30
2022-12-18T04:20:17.675Z,-8.46
2022-12-18T04:25:21.490Z,-8.38
2022-12-18T04:30:38.294Z,-8.19
2022-12-18T04:35:43.444Z,-8.18
2022-12-18T04:40:48.160Z,-8.07
2022-12-18T04:46:05.371Z,-8.26
2022-12-18T04:51:08.674Z,-8.21
2022-12-18T04:56:12.892Z,-7.93
2022-12-18T05:01:18.819Z,-7.96
2022-12-18T05:06:21.695Z,-8.03
2022-12-18T05:11:24.676Z,-7.89
2022-12-18T05:16:28.970Z,-8.10
2022-12-18T05:21:31.940Z,-8.14
2022-12-18T05:26:34.849Z,-8.09
2022-12-18T05:31:39.664Z,-7.89
2022-12-18T05:36:42.657Z,-7.89
2022-12-18T05:41:45.558Z,-7.85
2022-12-18T05:46:49.778Z,-7.92
2022-12-18T05:51:52.574Z,-7.88
2022-12-18T05:56:55.540Z,-7.88
2022-12-18T06:01:59.687Z,-7.85
2022-12-18T06:07:05.432Z,-7.90
2022-12-18T06:12:08.694Z,-7.92
2022-12-18T06:17:12.830Z,-7.98
2022-12-18T06:22:15.514Z,-7.93
2022-12-18T06:27:18.314Z,-8.18
2022-12-18T06:32:22.421Z,-7.94
2022-12-18T06:37:26.919Z,-7.90
2022-12-18T06:42:30.518Z,-7.93
2022-12-18T06:47:34.710Z,-7.97
2022-12-18T06:52:37.740Z,-7.88
2022-12-18T06:57:41.582Z,-7.83
2022-12-18T07:02:45.803Z,-7.95
2022-12-18T07:07:48.723Z,-7.96
2022-12-18T07:12:51.486Z,-7.86
2022-12-18T07:17:55.577Z,-7.79
2022-12-18T07:22:58.704Z,-7.68
2022-12-18T07:28:01.712Z,-7.68
2022-12-18T07:33:05.833Z,-7.76
2022-12-18T07:38:08.555Z,-7.78
2022-12-18T07:43:11.246Z,-7.72
2022-12-18T07:48:15.337Z,-7.63
2022-12-18T07:53:18.072Z,-7.45
2022-12-18T07:58:20.919Z,-7.52
2022-12-18T08:03:25.252Z,-7.44
2022-12-18T08:08:28.160Z,-7.20
2022-12-18T08:13:31.050Z,-7.26
2022-12-18T08:18:36.013Z,-7.02
2022-12-18T08:23:43.136Z,-7.08
2022-12-18T08:28:46.292Z,-7.05
2022-12-18T08:33:52.327Z,-6.70
2022-12-18T08:38:55.135Z,-6.84
2022-12-18T08:44:15.167Z,-6.42
2022-12-18T08:49:19.296Z,-6.55
2022-12-18T08:54:22.000Z,-6.52
2022-12-18T08:59:25.123Z,-6.34
2022-12-18T09:04:29.251Z,-6.26
2022-12-18T09:09:32.003Z,-6.30
2022-12-18T09:14:34.719Z,-6.06
2022-12-18T09:19:38.830Z,-5.92
2022-12-18T09:24:41.580Z,-5.75
2022-12-18T09:29:48.150Z,-5.65
2022-12-18T09:34:52.261Z,-5.51
2022-12-18T09:39:54.984Z,-5.49
2022-12-18T09:44:57.981Z,-5.12
2022-12-18T09:50:06.347Z,-5.18
2022-12-18T09:55:16.532Z,-4.94
2022-12-18T10:00:22.062Z,-5.02
2022-12-18T10:05:33.060Z,-4.89
2022-12-18T10:10:40.600Z,-4.61
2022-12-18T10:15:52.901Z,-4.60
2022-12-18T10:21:00.929Z,-4.36
2022-12-18T10:26:05.764Z,-4.24
2022-12-18T10:31:09.468Z,-4.09
2022-12-18T10:36:13.718Z,-4.06
2022-12-18T10:41:27.706Z,-4.06
2022-12-18T10:46:32.350Z,-3.80
2022-12-18T10:51:38.550Z,-3.20
2022-12-18T10:56:41.336Z,-3.26
2022-12-18T11:01:51.233Z,-3.45
2022-12-18T11:07:00.205Z,-3.33
2022-12-18T11:12:06.970Z,-1.98
2022-12-18T11:17:27.693Z,-1.73
2022-12-18T11:22:33.336Z,-1.19
2022-12-18T11:27:36.030Z,-2.25
2022-12-18T11:32:39.936Z,-2.63
2022-12-18T11:37:45.684Z,-2.71
2022-12-18T11:42:54.119Z,-2.64
2022-12-18T11:48:08.357Z,-2.39
2022-12-18T11:53:14.448Z,-2.46
2022-12-18T11:58:31.086Z,-2.39
2022-12-18T12:03:51.417Z,-2.40
2022-12-18T12:09:05.966Z,-2.34
2022-12-18T12:14:21.506Z,-2.34
2022-12-18T12:19:34.611Z,-2.22
2022-12-18T12:24:49.148Z,-2.23
2022-12-18T12:30:01.935Z,-2.15
2022-12-18T12:35:17.704Z,-2.08
2022-12-18T12:40:50.206Z,-2.03
2022-12-18T12:45:48.587Z,-1.93
2022-12-18T12:50:52.114Z,-1.99
2022-12-18T12:55:57.068Z,-1.91
2022-12-18T13:01:10.540Z,-1.87
2022-12-18T13:06:19.150Z,-1.76
2022-12-18T13:11:59.965Z,-1.78
2022-12-18T13:17:32.972Z,-1.71
2022-12-18T13:22:37.791Z,-1.76
2022-12-18T13:28:02.151Z,-1.67
2022-12-18T13:34:24.473Z,-1.63
2022-12-18T13:39:34.092Z,-1.68
2022-12-18T13:44:41.537Z,-1.61
2022-12-18T13:49:46.112Z,-1.51
2022-12-18T13:54:52.415Z,-1.60
2022-12-18T13:59:57.781Z,-1.63
2022-12-18T14:05:00.510Z,-1.57
2022-12-18T14:10:12.678Z,-1.59
2022-12-18T14:15:34.220Z,-1.57
2022-12-18T14:20:37.772Z,-1.58
2022-12-18T14:25:40.513Z,-1.64
2022-12-18T14:30:45.996Z,-1.60
2022-12-18T14:35:56.545Z,-1.65
2022-12-18T14:41:00.402Z,-1.64
2022-12-18T14:46:05.959Z,-1.59
2022-12-18T14:51:09.096Z,-1.63
2022-12-18T14:56:18.443Z,-1.63
2022-12-18T15:01:25.444Z,-1.61
2022-12-18T15:06:34.168Z,-1.55
2022-12-18T15:11:45.816Z,-1.57
2022-12-18T15:16:54.324Z,-1.56
2022-12-18T15:22:01.471Z,-1.56
2022-12-18T15:27:24.463Z,-1.61
2022-12-18T15:32:28.700Z,-1.69
2022-12-18T15:37:31.419Z,-1.66
2022-12-18T15:42:52.003Z,-1.68
2022-12-18T15:47:56.267Z,-1.58
2022-12-18T15:52:59.088Z,-1.65
2022-12-18T15:58:01.871Z,-1.63
2022-12-18T16:03:06.896Z,-1.55
2022-12-18T16:08:09.769Z,-1.59
2022-12-18T16:13:13.065Z,-1.52
2022-12-18T16:18:17.194Z,-1.52
2022-12-18T16:23:19.993Z,-1.45
2022-12-18T16:28:22.932Z,-1.46
2022-12-18T16:33:26.973Z,-1.41
2022-12-18T16:38:30.656Z,-1.36
2022-12-18T16:43:33.408Z,-1.35
2022-12-18T16:48:37.517Z,-1.32
2022-12-18T16:53:40.577Z,-1.38
2022-12-18T16:58:44.682Z,-1.45
2022-12-18T17:03:54.954Z,-1.45
2022-12-18T17:08:58.526Z,-1.46
2022-12-18T17:14:07.803Z,-1.49
2022-12-18T17:19:17.019Z,-1.48
2022-12-18T17:24:20.844Z,-1.55
2022-12-18T17:29:23.586Z,-1.53
2022-12-18T17:34:29.755Z,-1.51
2022-12-18T17:39:33.460Z,-1.56
2022-12-18T17:44:37.458Z,-1.51
2022-12-18T17:49:41.900Z,-1.57
2022-12-18T17:54:44.610Z,-1.58
2022-12-18T17:59:47.750Z,-1.58
2022-12-18T18:04:51.825Z,-1.59
2022-12-18T18:09:54.578Z,-1.59
2022-12-18T18:14:57.409Z,-1.57
2022-12-18T18:20:01.596Z,-1.58
2022-12-18T18:25:05.035Z,-1.59
2022-12-18T18:30:09.652Z,-1.59
2022-12-18T18:35:30.937Z,-1.63
2022-12-18T18:40:37.162Z,-1.64
2022-12-18T18:45:40.050Z,-1.67
2022-12-18T18:50:46.020Z,-1.67
2022-12-18T18:56:04.062Z,-1.66
2022-12-18T19:01:13.710Z,-1.66
2022-12-18T19:06:19.865Z,-1.69
2022-12-18T19:11:41.456Z,-1.69
2022-12-18T19:16:45.482Z,-1.74
2022-12-18T19:21:50.185Z,-1.72
2022-12-18T19:26:56.755Z,-1.68
2022-12-18T19:32:01.253Z,-1.69
2022-12-18T19:37:05.409Z,-1.69
2022-12-18T19:42:08.306Z,-1.75
2022-12-18T19:47:11.012Z,-1.68
2022-12-18T19:52:16.133Z,-1.64
2022-12-18T19:57:18.913Z,-1.67
2022-12-18T20:02:22.048Z,-1.65
2022-12-18T20:07:26.897Z,-1.64
2022-12-18T20:12:29.750Z,-1.59
2022-12-18T20:17:32.735Z,-1.65
2022-12-18T20:22:37.633Z,-1.68
2022-12-18T20:27:40.401Z,-1.66
2022-12-18T20:32:43.194Z,-1.66
2022-12-18T20:37:48.826Z,-1.70
2022-12-18T20:42:53.657Z,-1.66
2022-12-18T20:47:59.352Z,-1.68
2022-12-18T20:53:03.332Z,-1.66
2022-12-18T20:58:06.165Z,-1.74
2022-12-18T21:03:09.102Z,-1.64
2022-12-18T21:08:13.530Z,-1.68
2022-12-18T21:13:18.092Z,-1.67
2022-12-18T21:18:21.414Z,-1.65
2022-12-18T21:23:25.772Z,-1.61
2022-12-18T21:28:28.660Z,-1.59
2022-12-18T21:33:31.807Z,-1.58
2022-12-18T21:38:35.988Z,-1.54
2022-12-18T21:43:56.604Z,-1.52
2022-12-18T21:48:59.344Z,-1.48
2022-12-18T21:54:03.948Z,-1.40
2022-12-18T21:59:06.716Z,-1.37
2022-12-18T22:04:09.723Z,-1.42
2022-12-18T22:09:16.150Z,-1.34
2022-12-18T22:14:19.090Z,-1.36
2022-12-18T22:19:21.885Z,-1.31
2022-12-18T22:24:29.124Z,-1.27
2022-12-18T22:29:49.482Z,-1.27
2022-12-18T22:34:52.267Z,-1.23
2022-12-18T22:39:56.514Z,-1.20
2022-12-18T22:45:00.335Z,-1.15
2022-12-18T22:50:03.288Z,-1.14
2022-12-18T22:55:08.802Z,-1.12
2022-12-18T23:00:13.015Z,-1.10
2022-12-18T23:05:15.758Z,-1.10
2022-12-18T23:10:19.891Z,-1.04
2022-12-18T23:15:23.560Z,-1.04
2022-12-18T23:20:31.178Z,-1.03
2022-12-18T23:25:35.282Z,-0.98
2022-12-18T23:30:38.044Z,-0.92
2022-12-18T23:35:40.739Z,-0.94
2022-12-18T23:40:44.855Z,-0.87
2022-12-18T23:45:55.483Z,-0.80
2022-12-18T23:50:58.562Z,-0.86
2022-12-18T23:56:03.263Z,-0.81
